AUA1960 EDDM-LGIR
Flight info
| Callsign | AUA1960 |
|---|---|
| Flight time | 1h 36m |
| Altitude | 35000 |
| Route | VAVOR3E/08R VAVOR M867 RADIZ DCT REKTI DCT NEMEK DCT ELTIB DCT PINDO DCT KEA UL607 GIVIS T514 XAVIS |
| Aircraft | A320/M-SDE3FGHIRWY/LB1 |
Departure
| Time | 2026-05-06 11:44 |
|---|---|
| Airport | Munich Airport (EDDM) |
Arrival
| Time | 2026-05-06 13:21 |
|---|---|
| Airport | Heraklion International Nikos Kazantzakis Airport (LGIR) |
| Time | Latitude | Longitude | Altitude | Speed | Heading |
|---|---|---|---|---|---|
| 2026-05-06 11:10 | 48.35507 | 11.80000 | 1482 ft | 0 kts | 263° |
| 2026-05-06 11:10 | 48.35507 | 11.80007 | 1473 ft | 0 kts | 263° |
| 2026-05-06 11:30 | 48.35508 | 11.80016 | 1485 ft | 4 kts | 263° |
| 2026-05-06 11:30 | 48.35511 | 11.80055 | 1465 ft | 3 kts | 263° |
| 2026-05-06 11:30 | 48.35515 | 11.80087 | 1475 ft | 4 kts | 241° |
| 2026-05-06 11:31 | 48.35532 | 11.80114 | 1475 ft | 4 kts | 195° |
| 2026-05-06 11:31 | 48.35556 | 11.80115 | 1480 ft | 4 kts | 173° |
| 2026-05-06 11:31 | 48.35564 | 11.80114 | 1482 ft | 0 kts | 173° |
| 2026-05-06 11:33 | 48.35561 | 11.80114 | 1483 ft | 1 kts | 173° |
| 2026-05-06 11:33 | 48.35542 | 11.80117 | 1480 ft | 4 kts | 173° |
| 2026-05-06 11:33 | 48.35511 | 11.80123 | 1477 ft | 5 kts | 173° |
| 2026-05-06 11:33 | 48.35471 | 11.80130 | 1475 ft | 6 kts | 173° |
| 2026-05-06 11:34 | 48.35423 | 11.80138 | 1483 ft | 8 kts | 173° |
| 2026-05-06 11:34 | 48.35366 | 11.80148 | 1473 ft | 9 kts | 173° |
| 2026-05-06 11:34 | 48.35302 | 11.80167 | 1481 ft | 10 kts | 168° |
| 2026-05-06 11:34 | 48.35227 | 11.80184 | 1479 ft | 11 kts | 172° |
| 2026-05-06 11:35 | 48.35149 | 11.80172 | 1485 ft | 12 kts | 223° |
| 2026-05-06 11:35 | 48.35125 | 11.80047 | 1476 ft | 13 kts | 262° |
| 2026-05-06 11:35 | 48.35113 | 11.79905 | 1480 ft | 14 kts | 264° |
| 2026-05-06 11:35 | 48.35102 | 11.79752 | 1485 ft | 15 kts | 264° |
| 2026-05-06 11:36 | 48.35092 | 11.79607 | 1485 ft | 9 kts | 264° |
| 2026-05-06 11:36 | 48.35080 | 11.79552 | 1478 ft | 5 kts | 235° |
| 2026-05-06 11:36 | 48.35044 | 11.79529 | 1480 ft | 6 kts | 184° |
| 2026-05-06 11:36 | 48.34995 | 11.79533 | 1478 ft | 8 kts | 175° |
| 2026-05-06 11:37 | 48.34938 | 11.79541 | 1485 ft | 9 kts | 175° |
| 2026-05-06 11:37 | 48.34873 | 11.79551 | 1480 ft | 10 kts | 174° |
| 2026-05-06 11:37 | 48.34801 | 11.79539 | 1473 ft | 11 kts | 211° |
| 2026-05-06 11:37 | 48.34781 | 11.79430 | 1481 ft | 12 kts | 265° |
| 2026-05-06 11:38 | 48.34774 | 11.79302 | 1485 ft | 13 kts | 265° |
| 2026-05-06 11:38 | 48.34762 | 11.79159 | 1485 ft | 15 kts | 262° |
| 2026-05-06 11:38 | 48.34749 | 11.78999 | 1481 ft | 16 kts | 263° |
| 2026-05-06 11:38 | 48.34735 | 11.78827 | 1480 ft | 17 kts | 263° |
| 2026-05-06 11:39 | 48.34721 | 11.78645 | 1476 ft | 18 kts | 263° |
| 2026-05-06 11:39 | 48.34706 | 11.78448 | 1485 ft | 19 kts | 263° |
| 2026-05-06 11:39 | 48.34690 | 11.78240 | 1485 ft | 21 kts | 263° |
| 2026-05-06 11:39 | 48.34674 | 11.78018 | 1485 ft | 22 kts | 264° |
| 2026-05-06 11:40 | 48.34654 | 11.77782 | 1485 ft | 23 kts | 263° |
| 2026-05-06 11:40 | 48.34635 | 11.77534 | 1478 ft | 25 kts | 264° |
| 2026-05-06 11:40 | 48.34615 | 11.77271 | 1485 ft | 26 kts | 263° |
| 2026-05-06 11:40 | 48.34594 | 11.76996 | 1478 ft | 27 kts | 263° |
| 2026-05-06 11:41 | 48.34572 | 11.76709 | 1485 ft | 28 kts | 263° |
| 2026-05-06 11:41 | 48.34549 | 11.76411 | 1475 ft | 29 kts | 263° |
| 2026-05-06 11:41 | 48.34526 | 11.76103 | 1485 ft | 30 kts | 263° |
| 2026-05-06 11:41 | 48.34504 | 11.75818 | 1485 ft | 26 kts | 263° |
| 2026-05-06 11:42 | 48.34482 | 11.75540 | 1481 ft | 27 kts | 263° |
| 2026-05-06 11:42 | 48.34462 | 11.75303 | 1480 ft | 20 kts | 264° |
| 2026-05-06 11:42 | 48.34434 | 11.75105 | 1479 ft | 18 kts | 228° |
| 2026-05-06 11:42 | 48.34322 | 11.75086 | 1474 ft | 17 kts | 176° |
| 2026-05-06 11:43 | 48.34206 | 11.75100 | 1475 ft | 16 kts | 175° |
| 2026-05-06 11:43 | 48.34123 | 11.75163 | 1472 ft | 14 kts | 107° |
| 2026-05-06 11:43 | 48.34095 | 11.75309 | 1481 ft | 15 kts | 99° |
| 2026-05-06 11:44 | 48.34170 | 11.76324 | 1485 ft | 117 kts | 82° |
| 2026-05-06 11:44 | 48.34292 | 11.77846 | 1490 ft | 175 kts | 84° |
| 2026-05-06 11:44 | 48.34422 | 11.79753 | 2066 ft | 187 kts | 83° |
| 2026-05-06 11:44 | 48.34558 | 11.81685 | 3127 ft | 185 kts | 84° |
| 2026-05-06 11:45 | 48.34701 | 11.83610 | 3785 ft | 189 kts | 85° |
| 2026-05-06 11:45 | 48.34858 | 11.85687 | 4004 ft | 211 kts | 84° |
| 2026-05-06 11:45 | 48.35034 | 11.88006 | 4270 ft | 235 kts | 84° |
| 2026-05-06 11:45 | 48.35225 | 11.90488 | 4954 ft | 242 kts | 85° |
| 2026-05-06 11:46 | 48.35417 | 11.93028 | 5676 ft | 248 kts | 88° |
| 2026-05-06 11:46 | 48.35134 | 11.95562 | 6350 ft | 249 kts | 121° |
| 2026-05-06 11:46 | 48.33984 | 11.97471 | 7058 ft | 249 kts | 143° |
| 2026-05-06 11:46 | 48.32617 | 11.99082 | 7838 ft | 251 kts | 145° |
| 2026-05-06 11:47 | 48.31221 | 12.00694 | 8620 ft | 254 kts | 146° |
| 2026-05-06 11:47 | 48.29708 | 12.02059 | 9377 ft | 255 kts | 161° |
| 2026-05-06 11:47 | 48.28578 | 12.02560 | 9792 ft | 259 kts | 172° |
| 2026-05-06 11:47 | 48.26725 | 12.02654 | 10147 ft | 272 kts | 185° |
| 2026-05-06 11:48 | 48.24185 | 12.02469 | 11011 ft | 278 kts | 185° |
| 2026-05-06 11:48 | 48.22250 | 12.02347 | 11740 ft | 279 kts | 185° |
| 2026-05-06 11:48 | 48.20308 | 12.02231 | 12480 ft | 280 kts | 186° |
| 2026-05-06 11:48 | 48.18990 | 12.02154 | 12978 ft | 281 kts | 186° |
| 2026-05-06 11:49 | 48.17034 | 12.02044 | 13694 ft | 282 kts | 186° |
| 2026-05-06 11:49 | 48.15060 | 12.02075 | 14332 ft | 287 kts | 177° |
| 2026-05-06 11:49 | 48.13130 | 12.02808 | 14923 ft | 295 kts | 163° |
| 2026-05-06 11:49 | 48.11228 | 12.04034 | 15513 ft | 299 kts | 161° |
| 2026-05-06 11:50 | 48.08661 | 12.05697 | 16337 ft | 302 kts | 161° |
| 2026-05-06 11:50 | 48.07381 | 12.06522 | 16756 ft | 303 kts | 162° |
| 2026-05-06 11:50 | 48.05435 | 12.07771 | 17364 ft | 305 kts | 162° |
| 2026-05-06 11:50 | 48.03481 | 12.09022 | 17960 ft | 307 kts | 162° |
| 2026-05-06 11:51 | 48.01507 | 12.10283 | 18488 ft | 309 kts | 162° |
| 2026-05-06 11:51 | 47.99521 | 12.11549 | 18989 ft | 311 kts | 162° |
| 2026-05-06 11:51 | 47.97521 | 12.12821 | 19508 ft | 314 kts | 162° |
| 2026-05-06 11:51 | 47.95508 | 12.14103 | 20022 ft | 316 kts | 162° |
| 2026-05-06 11:52 | 47.93516 | 12.15529 | 20518 ft | 322 kts | 154° |
| 2026-05-06 11:52 | 47.91679 | 12.17576 | 20733 ft | 339 kts | 146° |
| 2026-05-06 11:52 | 47.89842 | 12.19890 | 20866 ft | 352 kts | 146° |
| 2026-05-06 11:52 | 47.87941 | 12.22286 | 20996 ft | 365 kts | 146° |
| 2026-05-06 11:53 | 47.85972 | 12.24764 | 21127 ft | 377 kts | 146° |
| 2026-05-06 11:53 | 47.83941 | 12.27318 | 21355 ft | 385 kts | 146° |
| 2026-05-06 11:53 | 47.81883 | 12.29910 | 21736 ft | 389 kts | 146° |
| 2026-05-06 11:53 | 47.79807 | 12.32524 | 22162 ft | 392 kts | 146° |
| 2026-05-06 11:54 | 47.77717 | 12.35147 | 22598 ft | 395 kts | 146° |
| 2026-05-06 11:54 | 47.75607 | 12.37786 | 22954 ft | 398 kts | 146° |
| 2026-05-06 11:54 | 47.73472 | 12.40446 | 23330 ft | 402 kts | 147° |
| 2026-05-06 11:54 | 47.71321 | 12.43124 | 23679 ft | 405 kts | 147° |
| 2026-05-06 11:55 | 47.69154 | 12.45817 | 24015 ft | 407 kts | 147° |
| 2026-05-06 11:55 | 47.66974 | 12.48517 | 24387 ft | 409 kts | 147° |
| 2026-05-06 11:55 | 47.64778 | 12.51227 | 24727 ft | 411 kts | 147° |
| 2026-05-06 11:55 | 47.62572 | 12.53938 | 25076 ft | 413 kts | 147° |
| 2026-05-06 11:56 | 47.60377 | 12.56717 | 25444 ft | 417 kts | 146° |
| 2026-05-06 11:56 | 47.58206 | 12.59590 | 25811 ft | 420 kts | 144° |
| 2026-05-06 11:56 | 47.56048 | 12.62519 | 26106 ft | 423 kts | 144° |
| 2026-05-06 11:56 | 47.53877 | 12.65483 | 26357 ft | 426 kts | 144° |
| 2026-05-06 11:57 | 47.51686 | 12.68460 | 26669 ft | 428 kts | 144° |
| 2026-05-06 11:57 | 47.49482 | 12.71431 | 26998 ft | 430 kts | 145° |
| 2026-05-06 11:57 | 47.47260 | 12.74405 | 27313 ft | 432 kts | 145° |
| 2026-05-06 11:57 | 47.45018 | 12.77383 | 27655 ft | 435 kts | 145° |
| 2026-05-06 11:58 | 47.42760 | 12.80368 | 27978 ft | 437 kts | 146° |
| 2026-05-06 11:58 | 47.40487 | 12.83366 | 28285 ft | 439 kts | 146° |
| 2026-05-06 11:58 | 47.38205 | 12.86375 | 28619 ft | 441 kts | 146° |
| 2026-05-06 11:58 | 47.35921 | 12.89394 | 28962 ft | 441 kts | 146° |
| 2026-05-06 11:59 | 47.33633 | 12.92425 | 29355 ft | 441 kts | 146° |
| 2026-05-06 11:59 | 47.31352 | 12.95445 | 29724 ft | 441 kts | 146° |
| 2026-05-06 11:59 | 47.29069 | 12.98460 | 30113 ft | 440 kts | 146° |
| 2026-05-06 11:59 | 47.26790 | 13.01463 | 30479 ft | 440 kts | 146° |
| 2026-05-06 12:00 | 47.24502 | 13.04468 | 30709 ft | 442 kts | 147° |
| 2026-05-06 12:00 | 47.22204 | 13.07476 | 30995 ft | 443 kts | 147° |
| 2026-05-06 12:00 | 47.19903 | 13.10485 | 31358 ft | 442 kts | 147° |
| 2026-05-06 12:00 | 47.17609 | 13.13487 | 31755 ft | 441 kts | 147° |
| 2026-05-06 12:01 | 47.15321 | 13.16484 | 32183 ft | 440 kts | 147° |
| 2026-05-06 12:01 | 47.13039 | 13.19473 | 32634 ft | 439 kts | 147° |
| 2026-05-06 12:01 | 47.10764 | 13.22448 | 33125 ft | 438 kts | 147° |
| 2026-05-06 12:01 | 47.08496 | 13.25408 | 33545 ft | 436 kts | 148° |
| 2026-05-06 12:02 | 47.06231 | 13.28354 | 33893 ft | 435 kts | 147° |
| 2026-05-06 12:02 | 47.03994 | 13.31259 | 34200 ft | 435 kts | 147° |
| 2026-05-06 12:02 | 47.01729 | 13.34194 | 34546 ft | 434 kts | 147° |
| 2026-05-06 12:02 | 46.99466 | 13.37124 | 34803 ft | 434 kts | 146° |
| 2026-05-06 12:03 | 46.94919 | 13.43004 | 34907 ft | 440 kts | 146° |
| 2026-05-06 12:03 | 46.90247 | 13.49015 | 34912 ft | 455 kts | 146° |
| 2026-05-06 12:04 | 46.85441 | 13.55206 | 34915 ft | 465 kts | 146° |
| 2026-05-06 12:04 | 46.80574 | 13.61482 | 34920 ft | 469 kts | 146° |
| 2026-05-06 12:05 | 46.75664 | 13.67790 | 34917 ft | 470 kts | 146° |
| 2026-05-06 12:05 | 46.70750 | 13.74081 | 34923 ft | 470 kts | 146° |
| 2026-05-06 12:06 | 46.65827 | 13.80374 | 34917 ft | 471 kts | 146° |
| 2026-05-06 12:06 | 46.60901 | 13.86642 | 34923 ft | 470 kts | 146° |
| 2026-05-06 12:07 | 46.56007 | 13.92972 | 34900 ft | 472 kts | 143° |
| 2026-05-06 12:07 | 46.51305 | 13.99669 | 34931 ft | 475 kts | 142° |
| 2026-05-06 12:08 | 46.46652 | 14.06478 | 34934 ft | 474 kts | 142° |
| 2026-05-06 12:08 | 46.41968 | 14.13188 | 35318 ft | 473 kts | 142° |
| 2026-05-06 12:09 | 46.39616 | 14.16503 | 35683 ft | 471 kts | 142° |
| 2026-05-06 12:09 | 46.37263 | 14.19802 | 35986 ft | 471 kts | 142° |
| 2026-05-06 12:09 | 46.34904 | 14.23100 | 36286 ft | 470 kts | 142° |
| 2026-05-06 12:09 | 46.32552 | 14.26390 | 36562 ft | 470 kts | 141° |
| 2026-05-06 12:10 | 46.30237 | 14.29631 | 36840 ft | 470 kts | 141° |
| 2026-05-06 12:10 | 46.27890 | 14.32917 | 36947 ft | 470 kts | 141° |
| 2026-05-06 12:10 | 46.23200 | 14.39476 | 36949 ft | 468 kts | 141° |
| 2026-05-06 12:11 | 46.18533 | 14.46005 | 36949 ft | 467 kts | 141° |
| 2026-05-06 12:11 | 46.13853 | 14.52530 | 36948 ft | 469 kts | 141° |
| 2026-05-06 12:12 | 46.09151 | 14.59054 | 36952 ft | 469 kts | 141° |
| 2026-05-06 12:12 | 46.04441 | 14.65576 | 36959 ft | 470 kts | 141° |
| 2026-05-06 12:13 | 45.99735 | 14.72084 | 36970 ft | 469 kts | 142° |
| 2026-05-06 12:13 | 45.95033 | 14.78573 | 36957 ft | 468 kts | 141° |
| 2026-05-06 12:14 | 45.90332 | 14.85039 | 36949 ft | 468 kts | 141° |
| 2026-05-06 12:14 | 45.85626 | 14.91506 | 36955 ft | 469 kts | 142° |
| 2026-05-06 12:15 | 45.80908 | 14.97960 | 36958 ft | 469 kts | 142° |
| 2026-05-06 12:15 | 45.76189 | 15.04402 | 36962 ft | 469 kts | 142° |
| 2026-05-06 12:16 | 45.71455 | 15.10839 | 36938 ft | 469 kts | 141° |
| 2026-05-06 12:16 | 45.66724 | 15.17277 | 36951 ft | 469 kts | 141° |
| 2026-05-06 12:17 | 45.61990 | 15.23699 | 36953 ft | 469 kts | 141° |
| 2026-05-06 12:17 | 45.57250 | 15.30104 | 36955 ft | 469 kts | 142° |
| 2026-05-06 12:18 | 45.49115 | 15.40205 | 36966 ft | 466 kts | 146° |
| 2026-05-06 12:18 | 45.39208 | 15.52138 | 36965 ft | 466 kts | 145° |
| 2026-05-06 12:19 | 45.29449 | 15.64083 | 36939 ft | 466 kts | 144° |
| 2026-05-06 12:19 | 45.19592 | 15.76003 | 36975 ft | 465 kts | 145° |
| 2026-05-06 12:20 | 45.09767 | 15.87870 | 36958 ft | 464 kts | 145° |
| 2026-05-06 12:20 | 44.99929 | 15.99667 | 36939 ft | 464 kts | 145° |
| 2026-05-06 12:21 | 44.95002 | 16.05552 | 37345 ft | 463 kts | 145° |
| 2026-05-06 12:21 | 44.90105 | 16.11400 | 37950 ft | 461 kts | 145° |
| 2026-05-06 12:21 | 44.85215 | 16.17224 | 38539 ft | 459 kts | 145° |
| 2026-05-06 12:21 | 44.80336 | 16.23013 | 38904 ft | 459 kts | 145° |
| 2026-05-06 12:22 | 44.70554 | 16.34599 | 38950 ft | 459 kts | 145° |
| 2026-05-06 12:22 | 44.60767 | 16.46129 | 38946 ft | 458 kts | 145° |
| 2026-05-06 12:23 | 44.50997 | 16.57611 | 38956 ft | 457 kts | 145° |
| 2026-05-06 12:23 | 44.41236 | 16.68999 | 38967 ft | 457 kts | 145° |
| 2026-05-06 12:24 | 44.31438 | 16.80380 | 38962 ft | 458 kts | 144° |
| 2026-05-06 12:24 | 44.21656 | 16.91821 | 38987 ft | 460 kts | 144° |
| 2026-05-06 12:25 | 44.11850 | 17.03320 | 38999 ft | 461 kts | 145° |
| 2026-05-06 12:25 | 44.01988 | 17.14766 | 39028 ft | 462 kts | 144° |
| 2026-05-06 12:26 | 43.92112 | 17.26191 | 39018 ft | 463 kts | 144° |
| 2026-05-06 12:26 | 43.82192 | 17.37629 | 39042 ft | 464 kts | 144° |
| 2026-05-06 12:27 | 43.72267 | 17.49016 | 39040 ft | 464 kts | 143° |
| 2026-05-06 12:27 | 43.62370 | 17.60324 | 39066 ft | 465 kts | 144° |
| 2026-05-06 12:28 | 43.52307 | 17.71756 | 39069 ft | 466 kts | 144° |
| 2026-05-06 12:28 | 43.42372 | 17.83016 | 39059 ft | 466 kts | 144° |
| 2026-05-06 12:29 | 43.32320 | 17.94330 | 39069 ft | 468 kts | 144° |
| 2026-05-06 12:29 | 43.22244 | 18.05656 | 39077 ft | 468 kts | 144° |
| 2026-05-06 12:30 | 43.12154 | 18.16906 | 39085 ft | 468 kts | 144° |
| 2026-05-06 12:30 | 43.02048 | 18.28137 | 39100 ft | 468 kts | 144° |
| 2026-05-06 12:31 | 42.91941 | 18.39321 | 39092 ft | 468 kts | 144° |
| 2026-05-06 12:31 | 42.81801 | 18.50510 | 39100 ft | 469 kts | 144° |
| 2026-05-06 12:32 | 42.71636 | 18.61657 | 39110 ft | 469 kts | 144° |
| 2026-05-06 12:32 | 42.61464 | 18.72782 | 39115 ft | 469 kts | 144° |
| 2026-05-06 12:33 | 42.51276 | 18.83877 | 39098 ft | 470 kts | 144° |
| 2026-05-06 12:33 | 42.41062 | 18.94916 | 39091 ft | 470 kts | 144° |
| 2026-05-06 12:34 | 42.30838 | 19.05963 | 39095 ft | 471 kts | 144° |
| 2026-05-06 12:34 | 42.22323 | 19.15119 | 39096 ft | 471 kts | 144° |
| 2026-05-06 12:35 | 42.12051 | 19.26117 | 39094 ft | 472 kts | 144° |
| 2026-05-06 12:35 | 42.01729 | 19.37114 | 39107 ft | 473 kts | 145° |
| 2026-05-06 12:36 | 41.91414 | 19.48074 | 39095 ft | 472 kts | 144° |
| 2026-05-06 12:36 | 41.81078 | 19.58983 | 39097 ft | 473 kts | 145° |
| 2026-05-06 12:37 | 41.70724 | 19.69888 | 39104 ft | 473 kts | 145° |
| 2026-05-06 12:37 | 41.60364 | 19.80739 | 39112 ft | 473 kts | 145° |
| 2026-05-06 12:38 | 41.49983 | 19.91570 | 39103 ft | 474 kts | 145° |
| 2026-05-06 12:38 | 41.39583 | 20.02381 | 39112 ft | 474 kts | 145° |
| 2026-05-06 12:39 | 41.29176 | 20.13161 | 39106 ft | 474 kts | 145° |
| 2026-05-06 12:39 | 41.18729 | 20.23916 | 39090 ft | 476 kts | 145° |
| 2026-05-06 12:40 | 41.08245 | 20.34691 | 39102 ft | 476 kts | 145° |
| 2026-05-06 12:40 | 40.97759 | 20.45407 | 39108 ft | 476 kts | 145° |
| 2026-05-06 12:41 | 40.87301 | 20.56046 | 39087 ft | 478 kts | 145° |
| 2026-05-06 12:41 | 40.76744 | 20.66743 | 39085 ft | 479 kts | 145° |
| 2026-05-06 12:42 | 40.66169 | 20.77426 | 39076 ft | 478 kts | 145° |
| 2026-05-06 12:42 | 40.55590 | 20.88040 | 39063 ft | 478 kts | 145° |
| 2026-05-06 12:43 | 40.45203 | 20.99037 | 39064 ft | 481 kts | 139° |
| 2026-05-06 12:43 | 40.35372 | 21.10955 | 39073 ft | 481 kts | 139° |
| 2026-05-06 12:44 | 40.25494 | 21.22834 | 39065 ft | 482 kts | 139° |
| 2026-05-06 12:44 | 40.15596 | 21.34704 | 39058 ft | 483 kts | 139° |
| 2026-05-06 12:45 | 40.05685 | 21.46538 | 39060 ft | 483 kts | 139° |
| 2026-05-06 12:46 | 39.90779 | 21.64210 | 39047 ft | 483 kts | 139° |
| 2026-05-06 12:46 | 39.80835 | 21.75973 | 39054 ft | 483 kts | 140° |
| 2026-05-06 12:47 | 39.70863 | 21.87686 | 39044 ft | 484 kts | 139° |
| 2026-05-06 12:47 | 39.60864 | 21.99403 | 39038 ft | 485 kts | 139° |
| 2026-05-06 12:48 | 39.50843 | 22.11113 | 39048 ft | 485 kts | 139° |
| 2026-05-06 12:48 | 39.40791 | 22.22805 | 39044 ft | 487 kts | 139° |
| 2026-05-06 12:49 | 39.30683 | 22.34492 | 39050 ft | 488 kts | 139° |
| 2026-05-06 12:49 | 39.20556 | 22.46165 | 39058 ft | 488 kts | 139° |
| 2026-05-06 12:50 | 39.10405 | 22.57836 | 39064 ft | 489 kts | 140° |
| 2026-05-06 12:50 | 39.00208 | 22.69457 | 39063 ft | 489 kts | 140° |
| 2026-05-06 12:51 | 38.90097 | 22.80998 | 39065 ft | 490 kts | 140° |
| 2026-05-06 12:51 | 38.79863 | 22.92602 | 39047 ft | 491 kts | 140° |
| 2026-05-06 12:52 | 38.69607 | 23.04186 | 39059 ft | 492 kts | 140° |
| 2026-05-06 12:52 | 38.59343 | 23.15731 | 39059 ft | 492 kts | 140° |
| 2026-05-06 12:53 | 38.49053 | 23.27267 | 39049 ft | 492 kts | 140° |
| 2026-05-06 12:53 | 38.38744 | 23.38782 | 39059 ft | 493 kts | 140° |
| 2026-05-06 12:54 | 38.28415 | 23.50270 | 39060 ft | 493 kts | 140° |
| 2026-05-06 12:54 | 38.18058 | 23.61749 | 39067 ft | 494 kts | 140° |
| 2026-05-06 12:55 | 38.07685 | 23.73187 | 39069 ft | 493 kts | 140° |
| 2026-05-06 12:55 | 37.97291 | 23.84601 | 39062 ft | 495 kts | 140° |
| 2026-05-06 12:56 | 37.86874 | 23.96018 | 39086 ft | 495 kts | 140° |
| 2026-05-06 12:56 | 37.76427 | 24.07410 | 39099 ft | 496 kts | 140° |
| 2026-05-06 12:57 | 37.65965 | 24.18777 | 39078 ft | 496 kts | 140° |
| 2026-05-06 12:57 | 37.55431 | 24.30025 | 39081 ft | 496 kts | 147° |
| 2026-05-06 12:58 | 37.43794 | 24.39229 | 39097 ft | 494 kts | 150° |
| 2026-05-06 12:58 | 37.32121 | 24.48401 | 39078 ft | 494 kts | 150° |
| 2026-05-06 12:59 | 37.20402 | 24.57545 | 38502 ft | 498 kts | 150° |
| 2026-05-06 12:59 | 37.14535 | 24.62112 | 37441 ft | 493 kts | 150° |
| 2026-05-06 12:59 | 37.08752 | 24.66606 | 36915 ft | 489 kts | 150° |
| 2026-05-06 12:59 | 37.02902 | 24.71135 | 36408 ft | 496 kts | 150° |
| 2026-05-06 13:00 | 36.97016 | 24.75688 | 35907 ft | 498 kts | 150° |
| 2026-05-06 13:00 | 36.91120 | 24.80243 | 35415 ft | 499 kts | 150° |
| 2026-05-06 13:00 | 36.85203 | 24.84831 | 34527 ft | 505 kts | 150° |
| 2026-05-06 13:00 | 36.79215 | 24.89470 | 33165 ft | 503 kts | 150° |
| 2026-05-06 13:01 | 36.73277 | 24.94056 | 31791 ft | 500 kts | 149° |
| 2026-05-06 13:01 | 36.68933 | 24.97404 | 30963 ft | 506 kts | 149° |
| 2026-05-06 13:01 | 36.65930 | 24.99709 | 30402 ft | 509 kts | 149° |
| 2026-05-06 13:01 | 36.62906 | 25.02023 | 29775 ft | 511 kts | 149° |
| 2026-05-06 13:02 | 36.59868 | 25.04343 | 29181 ft | 514 kts | 149° |
| 2026-05-06 13:02 | 36.56818 | 25.06672 | 28601 ft | 515 kts | 149° |
| 2026-05-06 13:02 | 36.53755 | 25.09010 | 28026 ft | 517 kts | 149° |
| 2026-05-06 13:02 | 36.50691 | 25.11353 | 27446 ft | 518 kts | 149° |
| 2026-05-06 13:03 | 36.47616 | 25.13702 | 26869 ft | 520 kts | 149° |
| 2026-05-06 13:03 | 36.44539 | 25.16047 | 26305 ft | 518 kts | 149° |
| 2026-05-06 13:03 | 36.41478 | 25.18379 | 25766 ft | 515 kts | 149° |
| 2026-05-06 13:03 | 36.38437 | 25.20695 | 25227 ft | 511 kts | 149° |
| 2026-05-06 13:04 | 36.35413 | 25.22994 | 24699 ft | 508 kts | 149° |
| 2026-05-06 13:04 | 36.32415 | 25.25270 | 24177 ft | 504 kts | 149° |
| 2026-05-06 13:04 | 36.29433 | 25.27532 | 23661 ft | 500 kts | 149° |
| 2026-05-06 13:04 | 36.26460 | 25.29785 | 23078 ft | 506 kts | 149° |
| 2026-05-06 13:05 | 36.23440 | 25.32074 | 22552 ft | 509 kts | 149° |
| 2026-05-06 13:05 | 36.20427 | 25.34356 | 21976 ft | 507 kts | 149° |
| 2026-05-06 13:05 | 36.17470 | 25.36595 | 21424 ft | 503 kts | 149° |
| 2026-05-06 13:05 | 36.14452 | 25.38879 | 20830 ft | 499 kts | 149° |
| 2026-05-06 13:06 | 36.11438 | 25.40811 | 20258 ft | 492 kts | 160° |
| 2026-05-06 13:06 | 36.08241 | 25.42164 | 19763 ft | 473 kts | 163° |
| 2026-05-06 13:06 | 36.05224 | 25.43389 | 19443 ft | 441 kts | 163° |
| 2026-05-06 13:06 | 36.02393 | 25.44526 | 19072 ft | 417 kts | 163° |
| 2026-05-06 13:07 | 35.99671 | 25.45613 | 18356 ft | 406 kts | 163° |
| 2026-05-06 13:07 | 35.97005 | 25.46674 | 17513 ft | 398 kts | 163° |
| 2026-05-06 13:07 | 35.94439 | 25.47697 | 17115 ft | 378 kts | 163° |
| 2026-05-06 13:07 | 35.91987 | 25.48676 | 16681 ft | 362 kts | 163° |
| 2026-05-06 13:08 | 35.89633 | 25.49621 | 16248 ft | 350 kts | 163° |
| 2026-05-06 13:08 | 35.87351 | 25.50537 | 15816 ft | 343 kts | 163° |
| 2026-05-06 13:08 | 35.85079 | 25.51448 | 15401 ft | 344 kts | 163° |
| 2026-05-06 13:08 | 35.82801 | 25.52358 | 14976 ft | 344 kts | 163° |
| 2026-05-06 13:09 | 35.80521 | 25.53269 | 14535 ft | 345 kts | 163° |
| 2026-05-06 13:09 | 35.78236 | 25.54183 | 14101 ft | 345 kts | 163° |
| 2026-05-06 13:09 | 35.75947 | 25.55099 | 13650 ft | 346 kts | 163° |
| 2026-05-06 13:09 | 35.73662 | 25.56013 | 13200 ft | 345 kts | 163° |
| 2026-05-06 13:10 | 35.71379 | 25.56927 | 12767 ft | 344 kts | 162° |
| 2026-05-06 13:10 | 35.69204 | 25.58137 | 12330 ft | 343 kts | 149° |
| 2026-05-06 13:10 | 35.67275 | 25.59852 | 11896 ft | 342 kts | 140° |
| 2026-05-06 13:10 | 35.65450 | 25.61662 | 11471 ft | 341 kts | 140° |
| 2026-05-06 13:11 | 35.63604 | 25.63489 | 11035 ft | 341 kts | 140° |
| 2026-05-06 13:11 | 35.61669 | 25.65157 | 10601 ft | 340 kts | 155° |
| 2026-05-06 13:11 | 35.59385 | 25.65697 | 10322 ft | 332 kts | 186° |
| 2026-05-06 13:11 | 35.57270 | 25.64848 | 10199 ft | 315 kts | 217° |
| 2026-05-06 13:12 | 35.55818 | 25.62971 | 10043 ft | 299 kts | 241° |
| 2026-05-06 13:12 | 35.54892 | 25.60734 | 9804 ft | 293 kts | 250° |
| 2026-05-06 13:12 | 35.54104 | 25.58406 | 9386 ft | 294 kts | 250° |
| 2026-05-06 13:12 | 35.53292 | 25.56120 | 9071 ft | 292 kts | 248° |
| 2026-05-06 13:13 | 35.52392 | 25.53886 | 8718 ft | 292 kts | 245° |
| 2026-05-06 13:13 | 35.51414 | 25.51706 | 8368 ft | 291 kts | 242° |
| 2026-05-06 13:13 | 35.50383 | 25.49575 | 8035 ft | 290 kts | 241° |
| 2026-05-06 13:13 | 35.49323 | 25.47479 | 7695 ft | 287 kts | 240° |
| 2026-05-06 13:14 | 35.48260 | 25.45419 | 7117 ft | 284 kts | 239° |
| 2026-05-06 13:14 | 35.47202 | 25.43380 | 6550 ft | 282 kts | 239° |
| 2026-05-06 13:14 | 35.46041 | 25.41455 | 5866 ft | 283 kts | 222° |
| 2026-05-06 13:14 | 35.44274 | 25.40426 | 5221 ft | 284 kts | 187° |
| 2026-05-06 13:15 | 35.42400 | 25.40810 | 4981 ft | 269 kts | 154° |
| 2026-05-06 13:15 | 35.40824 | 25.41886 | 4838 ft | 250 kts | 150° |
| 2026-05-06 13:15 | 35.39364 | 25.42904 | 4714 ft | 232 kts | 150° |
| 2026-05-06 13:15 | 35.37983 | 25.43776 | 4589 ft | 216 kts | 165° |
| 2026-05-06 13:16 | 35.36538 | 25.43768 | 4506 ft | 208 kts | 202° |
| 2026-05-06 13:16 | 35.35410 | 25.42722 | 4227 ft | 206 kts | 240° |
| 2026-05-06 13:16 | 35.34788 | 25.41166 | 3953 ft | 202 kts | 246° |
| 2026-05-06 13:16 | 35.34202 | 25.39635 | 3652 ft | 201 kts | 246° |
| 2026-05-06 13:17 | 35.33605 | 25.38090 | 3378 ft | 200 kts | 246° |
| 2026-05-06 13:17 | 35.33032 | 25.36582 | 3099 ft | 190 kts | 250° |
| 2026-05-06 13:17 | 35.32809 | 25.35050 | 2869 ft | 179 kts | 272° |
| 2026-05-06 13:17 | 35.32886 | 25.33536 | 2662 ft | 177 kts | 276° |
| 2026-05-06 13:18 | 35.32991 | 25.32040 | 2413 ft | 175 kts | 276° |
| 2026-05-06 13:18 | 35.33093 | 25.30558 | 2134 ft | 173 kts | 276° |
| 2026-05-06 13:18 | 35.33197 | 25.29092 | 1875 ft | 170 kts | 276° |
| 2026-05-06 13:18 | 35.33293 | 25.27691 | 1627 ft | 161 kts | 276° |
| 2026-05-06 13:19 | 35.33386 | 25.26367 | 1381 ft | 152 kts | 276° |
| 2026-05-06 13:19 | 35.33474 | 25.25086 | 1163 ft | 150 kts | 276° |
| 2026-05-06 13:19 | 35.33561 | 25.23813 | 943 ft | 150 kts | 276° |
| 2026-05-06 13:19 | 35.33652 | 25.22526 | 721 ft | 151 kts | 276° |
| 2026-05-06 13:20 | 35.33743 | 25.21243 | 501 ft | 151 kts | 276° |
| 2026-05-06 13:20 | 35.33834 | 25.19969 | 278 ft | 149 kts | 276° |
| 2026-05-06 13:20 | 35.33931 | 25.18723 | 113 ft | 143 kts | 276° |
| 2026-05-06 13:20 | 35.34010 | 25.17629 | 92 ft | 108 kts | 275° |
| 2026-05-06 13:21 | 35.34061 | 25.16935 | 90 ft | 44 kts | 275° |
| 2026-05-06 13:21 | 35.34074 | 25.16715 | 90 ft | 17 kts | 267° |
| 2026-05-06 13:21 | 35.34025 | 25.16672 | 92 ft | 9 kts | 155° |
| 2026-05-06 13:21 | 35.33980 | 25.16743 | 93 ft | 12 kts | 123° |
| 2026-05-06 13:22 | 35.33967 | 25.16850 | 92 ft | 14 kts | 97° |
| 2026-05-06 13:22 | 35.33955 | 25.16984 | 93 ft | 17 kts | 96° |
| 2026-05-06 13:22 | 35.33945 | 25.17086 | 90 ft | 19 kts | 96° |
| 2026-05-06 13:22 | 35.33931 | 25.17252 | 91 ft | 16 kts | 96° |
| 2026-05-06 13:23 | 35.33919 | 25.17395 | 91 ft | 7 kts | 95° |
| 2026-05-06 13:23 | 35.33916 | 25.17435 | 91 ft | 6 kts | 95° |
| 2026-05-06 13:23 | 35.33911 | 25.17502 | 94 ft | 9 kts | 95° |
| 2026-05-06 13:23 | 35.33905 | 25.17592 | 91 ft | 12 kts | 95° |
| 2026-05-06 13:24 | 35.33898 | 25.17703 | 94 ft | 14 kts | 95° |
| 2026-05-06 13:24 | 35.33890 | 25.17808 | 92 ft | 8 kts | 95° |
| 2026-05-06 13:24 | 35.33872 | 25.17807 | 94 ft | 5 kts | 249° |
| 2026-05-06 13:24 | 35.33868 | 25.17722 | 91 ft | 13 kts | 267° |
| 2026-05-06 13:25 | 35.33816 | 25.17634 | 92 ft | 7 kts | 209° |
| 2026-05-06 13:25 | 35.33792 | 25.17590 | 91 ft | 5 kts | 274° |
| 2026-05-06 13:25 | 35.33804 | 25.17550 | 94 ft | 4 kts | 308° |
| 2026-05-06 13:25 | 35.33811 | 25.17541 | 93 ft | 1 kts | 315° |
| 2026-05-06 13:26 | 35.33812 | 25.17540 | 91 ft | 0 kts | 315° |